Time;durP1;ratioP1;P1;durP2;ratioP2;P2;SDS_P1;SDS_P2;PMS_P1;PMS_P2;Temp;Humidity;BMP_temperature;BMP_pressure;BME280_temperature;BME280_humidity;BME280_pressure;Samples;Min_cycle;Max_cycle;Signal;HPM_P1;HPM_P2
2022/06/01 00:00:34;;;;;;;3.85;3.55;;;16.90;91.90;;;;;;5071386;28;20269;-74
2022/06/01 00:03:00;;;;;;;3.72;3.53;;;16.90;91.80;;;;;;5075289;28;20211;-75
2022/06/01 00:05:27;;;;;;;3.15;3.05;;;16.80;91.70;;;;;;5072303;28;20229;-74
2022/06/01 00:07:52;;;;;;;3.03;2.83;;;16.80;91.80;;;;;;5070439;28;20186;-74
2022/06/01 00:10:18;;;;;;;3.05;2.83;;;16.80;91.80;;;;;;5073150;28;20184;-74
2022/06/01 00:12:44;;;;;;;4.90;2.80;;;16.80;91.60;;;;;;5075855;28;20190;-74
2022/06/01 00:15:13;;;;;;;3.20;3.00;;;16.80;91.40;;;;;;5064144;28;20199;-74
2022/06/01 00:17:39;;;;;;;3.33;3.15;;;16.70;91.40;;;;;;5074285;28;20183;-74
2022/06/01 00:20:05;;;;;;;3.08;2.88;;;16.70;92.00;;;;;;5077415;28;20660;-74
2022/06/01 00:22:31;;;;;;;3.47;3.28;;;16.70;91.80;;;;;;5075977;28;21079;-74
2022/06/01 00:24:57;;;;;;;3.85;3.22;;;16.70;91.60;;;;;;5076606;28;20316;-75
2022/06/01 00:27:23;;;;;;;3.70;3.30;;;16.70;92.20;;;;;;5078834;28;20178;-74
2022/06/01 00:29:49;;;;;;;4.03;3.28;;;16.70;91.80;;;;;;5076751;28;20987;-74
2022/06/01 00:32:16;;;;;;;3.05;2.67;;;16.70;92.10;;;;;;5076416;28;20187;-74
2022/06/01 00:34:44;;;;;;;2.42;2.35;;;16.60;91.80;;;;;;5074660;28;20269;-75
2022/06/01 00:37:10;;;;;;;2.60;2.33;;;16.60;91.80;;;;;;5074075;28;20178;-74
2022/06/01 00:39:37;;;;;;;2.60;2.30;;;16.60;91.80;;;;;;5074659;28;20197;-74
2022/06/01 00:42:15;;;;;;;4.45;2.55;;;16.60;92.00;;;;;;5078126;28;20176;-74
2022/06/01 00:44:41;;;;;;;3.10;2.90;;;16.60;91.60;;;;;;5073178;28;20221;-75
2022/06/01 00:47:08;;;;;;;2.45;2.35;;;16.60;92.40;;;;;;5072330;28;20171;-74
2022/06/01 00:49:35;;;;;;;3.38;2.63;;;16.60;93.40;;;;;;5061624;28;20182;-74
2022/06/01 00:52:01;;;;;;;2.78;2.65;;;16.60;93.60;;;;;;5070357;28;20175;-75
2022/06/01 00:54:28;;;;;;;2.65;2.55;;;16.50;93.30;;;;;;5072969;28;20754;-74
2022/06/01 00:56:58;;;;;;;2.33;2.22;;;16.40;93.50;;;;;;5076966;28;20191;-74
2022/06/01 00:59:30;;;;;;;2.35;2.25;;;16.40;93.00;;;;;;5078986;28;20264;-74
2022/06/01 01:01:56;;;;;;;2.40;2.30;;;16.40;92.80;;;;;;5077170;28;20285;-74
2022/06/01 01:04:23;;;;;;;2.63;2.42;;;16.30;92.60;;;;;;5077101;28;20301;-74
2022/06/01 01:06:49;;;;;;;2.38;2.20;;;16.30;92.60;;;;;;5078632;28;20186;-74
2022/06/01 01:09:15;;;;;;;4.70;2.60;;;16.30;92.80;;;;;;5065232;28;20178;-74
2022/06/01 01:11:52;;;;;;;3.67;2.45;;;16.20;92.60;;;;;;5074414;28;20194;-74
2022/06/01 01:14:21;;;;;;;4.32;1.95;;;16.20;92.30;;;;;;5072820;28;20193;-74
2022/06/01 01:16:51;;;;;;;2.17;2.08;;;16.20;93.10;;;;;;5076071;28;20723;-74
2022/06/01 01:19:30;;;;;;;2.22;2.03;;;16.30;93.50;;;;;;5076181;28;20189;-74
2022/06/01 01:22:34;;;;;;;1.20;1.20;;;16.20;92.40;;;;;;5077123;28;20183;-74
2022/06/01 01:25:21;;;;;;;1.67;1.58;;;16.20;92.60;;;;;;5027386;28;20623;-74
2022/06/01 01:27:53;;;;;;;1.67;1.67;;;16.20;92.50;;;;;;5026036;28;20693;-74
2022/06/01 01:30:36;;;;;;;1.38;1.38;;;16.20;93.30;;;;;;5034096;28;20191;-74
2022/06/01 01:33:10;;;;;;;1.33;1.33;;;16.20;92.80;;;;;;5022325;28;20192;-74
2022/06/01 01:35:37;;;;;;;2.08;1.00;;;16.10;92.80;;;;;;5022786;28;20203;-74
2022/06/01 01:38:07;;;;;;;4.13;1.23;;;16.10;92.80;;;;;;5032674;28;20194;-74
2022/06/01 01:40:34;;;;;;;1.40;1.38;;;16.10;92.60;;;;;;5029211;28;20270;-74
2022/06/01 01:43:01;;;;;;;3.40;1.35;;;16.00;92.50;;;;;;5031517;28;20198;-75
2022/06/01 01:45:31;;;;;;;2.25;1.20;;;16.00;92.50;;;;;;5033716;28;20195;-74
2022/06/01 01:47:57;;;;;;;1.52;1.42;;;16.00;92.50;;;;;;5030769;28;20204;-74
2022/06/01 01:50:24;;;;;;;2.33;1.50;;;16.00;92.70;;;;;;5032162;28;20176;-75
2022/06/01 01:52:51;;;;;;;2.28;2.03;;;16.00;92.50;;;;;;5029223;28;20228;-74
2022/06/01 01:55:31;;;;;;;1.27;1.27;;;16.00;92.50;;;;;;5033071;28;20200;-73
2022/06/01 01:58:07;;;;;;;4.68;1.60;;;15.90;91.90;;;;;;5029047;28;20239;-74
2022/06/01 02:00:36;;;;;;;1.60;1.50;;;15.90;92.10;;;;;;5049306;28;20272;-73
2022/06/01 02:03:29;;;;;;;4.88;1.30;;;15.90;92.80;;;;;;5076738;28;20202;-74
2022/06/01 02:06:25;;;;;;;1.42;1.42;;;15.90;92.30;;;;;;5069792;28;20190;-74
2022/06/01 02:08:57;;;;;;;2.55;1.48;;;15.90;92.60;;;;;;5071960;28;20632;-74
2022/06/01 02:14:18;;;;;;;1.63;1.63;;;15.80;93.40;;;;;;5072027;28;20583;-73
2022/06/01 02:17:13;;;;;;;1.20;1.20;;;15.80;93.40;;;;;;5061634;28;20200;-73
2022/06/01 02:19:55;;;;;;;1.45;1.42;;;15.70;93.40;;;;;;5057789;28;20632;-74
2022/06/01 02:22:21;;;;;;;1.55;1.52;;;15.70;92.60;;;;;;5072979;28;20687;-74
2022/06/01 02:24:47;;;;;;;2.95;1.25;;;15.70;92.90;;;;;;5073262;28;20212;-73
2022/06/01 02:27:15;;;;;;;1.25;1.25;;;15.60;92.90;;;;;;5071062;28;20183;-73
2022/06/01 02:30:13;;;;;;;3.75;1.38;;;15.60;92.90;;;;;;5071937;28;20180;-73
2022/06/01 02:32:40;;;;;;;1.38;1.38;;;15.60;92.60;;;;;;5069046;28;20195;-74
2022/06/01 02:35:08;;;;;;;1.23;1.20;;;15.60;93.30;;;;;;5073561;28;20182;-73
2022/06/01 02:37:37;;;;;;;1.30;1.05;;;15.60;93.40;;;;;;5072781;28;20187;-74
2022/06/01 02:40:08;;;;;;;1.33;1.30;;;15.50;93.00;;;;;;5073178;28;20408;-74
2022/06/01 02:42:42;;;;;;;1.38;1.38;;;15.50;93.10;;;;;;5079813;28;20866;-74
2022/06/01 02:45:08;;;;;;;1.58;1.40;;;15.50;93.20;;;;;;5073993;28;20215;-74
2022/06/01 02:47:39;;;;;;;1.23;1.23;;;15.50;93.30;;;;;;5069507;28;20175;-73
2022/06/01 02:50:07;;;;;;;2.50;1.38;;;15.50;92.80;;;;;;5071505;28;20190;-73
2022/06/01 02:52:33;;;;;;;1.17;1.17;;;15.40;93.20;;;;;;5072779;28;20269;-74
2022/06/01 02:54:59;;;;;;;1.38;1.30;;;15.40;93.00;;;;;;5069341;28;20575;-74
2022/06/01 02:57:25;;;;;;;1.63;1.42;;;15.40;93.30;;;;;;5070538;28;21086;-74
2022/06/01 02:59:52;;;;;;;1.20;1.20;;;15.40;93.10;;;;;;5065811;28;20270;-74
2022/06/01 03:02:18;;;;;;;1.35;1.17;;;15.40;93.10;;;;;;5057685;28;20249;-74
2022/06/01 03:04:45;;;;;;;1.58;1.48;;;15.40;93.30;;;;;;5074475;28;20600;-75
2022/06/01 03:07:12;;;;;;;3.40;1.30;;;15.40;93.30;;;;;;5066367;28;20676;-75
2022/06/01 03:09:38;;;;;;;2.95;1.48;;;15.30;93.20;;;;;;5068431;28;20179;-75
2022/06/01 03:12:05;;;;;;;1.85;1.42;;;15.30;93.80;;;;;;5074874;28;20581;-75
2022/06/01 03:14:31;;;;;;;1.65;1.55;;;15.30;93.30;;;;;;5075905;28;20212;-75
2022/06/01 03:16:57;;;;;;;1.50;1.40;;;15.30;93.50;;;;;;5072139;28;20178;-75
2022/06/01 03:19:25;;;;;;;1.42;1.35;;;15.30;93.60;;;;;;5073979;28;20194;-75
2022/06/01 03:21:51;;;;;;;1.65;1.55;;;15.30;93.60;;;;;;5072759;28;20179;-75
2022/06/01 03:24:17;;;;;;;1.50;1.48;;;15.30;93.80;;;;;;5074450;28;20214;-75
2022/06/01 03:26:43;;;;;;;1.77;1.67;;;15.30;94.40;;;;;;5068672;28;20179;-74
2022/06/01 03:29:09;;;;;;;1.45;1.38;;;15.30;93.90;;;;;;5068815;28;20220;-74
2022/06/01 03:31:35;;;;;;;1.95;1.85;;;15.30;93.90;;;;;;5071615;28;20296;-74
2022/06/01 03:34:02;;;;;;;3.72;2.67;;;15.20;94.60;;;;;;5075679;28;20270;-73
2022/06/01 03:36:27;;;;;;;2.03;2.03;;;15.10;94.70;;;;;;5076959;28;20174;-74
2022/06/01 03:38:53;;;;;;;2.47;2.10;;;15.20;95.30;;;;;;5072998;28;20754;-73
2022/06/01 03:41:19;;;;;;;2.70;1.98;;;15.20;94.90;;;;;;5071271;28;20179;-74
2022/06/01 03:46:32;;;;;;;1.63;1.63;;;15.30;94.80;;;;;;5074828;28;20283;-74
2022/06/01 03:48:58;;;;;;;1.75;1.70;;;15.30;94.70;;;;;;5072243;28;20644;-74
2022/06/01 03:51:26;;;;;;;2.60;2.50;;;15.40;94.80;;;;;;5071013;28;20197;-73
2022/06/01 03:53:53;;;;;;;2.30;2.20;;;15.40;94.90;;;;;;5071437;28;20274;-73
2022/06/01 03:56:22;;;;;;;5.63;2.40;;;15.40;94.90;;;;;;5071972;28;20187;-73
2022/06/01 03:58:51;;;;;;;2.30;2.17;;;15.50;94.50;;;;;;5068725;28;20186;-75
2022/06/01 04:01:18;;;;;;;2.15;2.05;;;15.50;94.50;;;;;;5066318;28;21041;-74
2022/06/01 04:03:45;;;;;;;2.90;2.35;;;15.60;94.70;;;;;;5068852;28;20210;-74
2022/06/01 04:06:10;;;;;;;3.15;2.80;;;15.70;95.30;;;;;;5068456;28;20178;-74
2022/06/01 04:08:36;;;;;;;4.07;2.47;;;15.80;94.60;;;;;;5069920;28;20186;-75
2022/06/01 04:11:02;;;;;;;3.47;3.15;;;15.80;95.00;;;;;;5065206;28;20575;-75
2022/06/01 04:13:28;;;;;;;3.38;3.10;;;15.90;94.60;;;;;;5060064;28;20214;-75
2022/06/01 04:15:55;;;;;;;3.60;3.30;;;15.90;94.80;;;;;;5068584;28;20198;-74
2022/06/01 04:18:20;;;;;;;3.78;2.90;;;16.00;94.70;;;;;;5066521;28;20636;-74
2022/06/01 04:20:48;;;;;;;3.35;3.15;;;16.10;94.70;;;;;;5072096;28;20213;-75
2022/06/01 04:23:14;;;;;;;3.80;3.33;;;16.20;95.40;;;;;;5071335;28;20210;-74
2022/06/01 04:25:40;;;;;;;4.03;2.88;;;16.20;95.10;;;;;;5069058;28;20617;-74
2022/06/01 04:28:06;;;;;;;3.25;3.05;;;16.20;94.60;;;;;;5069846;28;20265;-74
2022/06/01 04:30:32;;;;;;;2.83;2.72;;;;;;;;;;5071596;28;20187;-74
2022/06/01 04:32:58;;;;;;;3.28;3.00;;;16.30;94.60;;;;;;5067630;28;20700;-74
2022/06/01 04:35:24;;;;;;;5.15;3.15;;;16.30;94.40;;;;;;5063799;28;20195;-76
2022/06/01 04:37:51;;;;;;;3.22;2.72;;;16.40;94.70;;;;;;5067247;28;20260;-76
2022/06/01 04:40:19;;;;;;;2.55;2.38;;;16.40;94.70;;;;;;5067524;28;20320;-75
2022/06/01 04:42:45;;;;;;;2.00;2.00;;;16.50;94.70;;;;;;5066216;28;20186;-74
2022/06/01 04:45:13;;;;;;;1.83;1.75;;;16.50;94.40;;;;;;5064033;28;20708;-75
2022/06/01 04:47:39;;;;;;;1.80;1.70;;;16.60;94.50;;;;;;5062481;28;21786;-74
2022/06/01 04:50:05;;;;;;;2.10;2.10;;;16.60;94.60;;;;;;5063817;28;20182;-76
2022/06/01 04:52:31;;;;;;;1.85;1.75;;;16.70;94.60;;;;;;5064563;28;20183;-76
2022/06/01 04:54:57;;;;;;;2.38;1.95;;;16.70;94.10;;;;;;5067449;28;20215;-76
2022/06/01 04:57:22;;;;;;;6.03;2.13;;;16.80;94.10;;;;;;5073310;28;20679;-77
2022/06/01 04:59:48;;;;;;;1.52;1.45;;;16.80;94.30;;;;;;5074138;28;20257;-76
2022/06/01 05:02:15;;;;;;;1.88;1.88;;;16.80;94.00;;;;;;5072634;28;20279;-76
2022/06/01 05:04:40;;;;;;;2.75;2.58;;;16.80;93.70;;;;;;5073089;28;20210;-76
2022/06/01 05:07:06;;;;;;;2.38;2.17;;;16.80;93.30;;;;;;5068562;28;20186;-76
2022/06/01 05:09:32;;;;;;;2.28;2.17;;;16.80;93.30;;;;;;5075840;28;20197;-75
2022/06/01 05:11:58;;;;;;;2.25;2.15;;;16.80;93.30;;;;;;5074294;28;20846;-75
2022/06/01 05:14:25;;;;;;;2.85;2.25;;;16.80;93.20;;;;;;5069877;28;20195;-72
2022/06/01 05:16:55;;;;;;;2.47;2.38;;;16.90;93.00;;;;;;5090669;28;20190;-78
2022/06/01 05:19:21;;;;;;;2.60;2.25;;;16.80;92.80;;;;;;5074105;28;20193;-75
2022/06/01 05:21:47;;;;;;;6.43;3.83;;;16.90;93.00;;;;;;5069807;28;21028;-75
2022/06/01 05:24:12;;;;;;;4.45;4.05;;;16.90;93.00;;;;;;5073861;28;20228;-76
2022/06/01 05:26:38;;;;;;;4.53;4.10;;;16.90;93.10;;;;;;5072858;28;20285;-76
2022/06/01 05:29:04;;;;;;;3.90;3.67;;;17.00;93.10;;;;;;5075450;28;20256;-76
2022/06/01 05:31:30;;;;;;;3.65;3.40;;;17.00;93.00;;;;;;5070713;28;20181;-76
2022/06/01 05:33:55;;;;;;;3.45;3.28;;;17.00;92.90;;;;;;5069056;28;20223;-76
2022/06/01 05:36:21;;;;;;;3.45;3.25;;;17.10;93.80;;;;;;5065706;28;20669;-74
2022/06/01 05:38:47;;;;;;;5.70;4.53;;;17.10;93.30;;;;;;5069917;28;20179;-73
2022/06/01 05:41:14;;;;;;;3.53;3.30;;;17.10;92.80;;;;;;5068674;28;20664;-73
2022/06/01 05:43:40;;;;;;;3.83;3.53;;;17.20;92.70;;;;;;5071728;28;20606;-74
2022/06/01 05:46:05;;;;;;;3.75;3.55;;;17.20;92.70;;;;;;5066584;28;20182;-73
2022/06/01 05:48:31;;;;;;;3.17;3.05;;;17.20;92.80;;;;;;5066767;28;20603;-73
2022/06/01 05:50:57;;;;;;;3.60;3.00;;;17.20;92.80;;;;;;5066182;28;20251;-73
2022/06/01 05:53:23;;;;;;;3.50;3.40;;;17.30;92.80;;;;;;5066216;28;20236;-73
2022/06/01 05:55:49;;;;;;;3.58;3.38;;;17.30;93.20;;;;;;5065685;28;20619;-73
2022/06/01 05:58:21;;;;;;;4.65;3.72;;;17.30;92.80;;;;;;5067480;28;20191;-72
2022/06/01 06:00:49;;;;;;;3.35;3.08;;;17.40;92.60;;;;;;5066996;28;20183;-72
2022/06/01 06:03:16;;;;;;;3.63;2.90;;;17.40;92.60;;;;;;5067416;28;20714;-73
2022/06/01 06:08:26;;;;;;;3.78;3.38;;;17.60;92.90;;;;;;5064847;28;20508;-72
2022/06/01 06:10:52;;;;;;;3.17;2.97;;;17.60;92.50;;;;;;5068160;28;20214;-72
2022/06/01 06:13:18;;;;;;;4.28;3.03;;;17.70;92.40;;;;;;5069522;28;20578;-72
2022/06/01 06:15:44;;;;;;;3.92;3.58;;;17.80;92.30;;;;;;5068637;28;20668;-72
2022/06/01 06:18:12;;;;;;;3.42;3.22;;;17.80;92.10;;;;;;5066198;28;20186;-72
2022/06/01 06:20:39;;;;;;;2.83;2.72;;;17.90;92.00;;;;;;5069183;28;20632;-72
2022/06/01 06:23:04;;;;;;;4.30;3.03;;;18.00;91.90;;;;;;5071368;28;20554;-72
2022/06/01 06:25:30;;;;;;;3.83;3.13;;;18.00;91.90;;;;;;5058919;28;20243;-73
2022/06/01 06:27:56;;;;;;;3.60;3.30;;;18.10;91.90;;;;;;5068884;28;20189;-72
2022/06/01 06:30:21;;;;;;;3.80;3.60;;;18.20;91.90;;;;;;5070108;28;20179;-72
2022/06/01 06:32:47;;;;;;;5.47;3.95;;;18.30;91.80;;;;;;5069742;28;20657;-71
2022/06/01 06:35:13;;;;;;;3.80;3.53;;;18.30;91.50;;;;;;5069780;28;20186;-72
2022/06/01 06:37:39;;;;;;;3.92;3.40;;;18.40;91.50;;;;;;5066161;28;20738;-71
2022/06/01 06:40:05;;;;;;;4.63;3.85;;;18.50;91.40;;;;;;5070505;28;20179;-72
2022/06/01 06:42:31;;;;;;;4.38;4.10;;;18.50;91.20;;;;;;5065695;28;20356;-72
2022/06/01 06:44:57;;;;;;;5.93;4.50;;;18.60;91.00;;;;;;5067489;28;20714;-73
2022/06/01 06:47:23;;;;;;;10.02;4.18;;;18.70;90.80;;;;;;5064673;28;20178;-72
2022/06/01 06:49:49;;;;;;;6.82;3.95;;;18.80;90.90;;;;;;5066833;28;20849;-72
2022/06/01 06:52:14;;;;;;;4.00;3.55;;;18.80;90.90;;;;;;5067817;28;20179;-72
2022/06/01 06:54:40;;;;;;;4.65;3.85;;;18.90;90.80;;;;;;5071068;28;20225;-72
2022/06/01 06:57:06;;;;;;;5.38;4.97;;;19.00;90.50;;;;;;5066296;28;20183;-72
2022/06/01 06:59:32;;;;;;;6.07;4.93;;;19.00;89.60;;;;;;5065160;28;20191;-72
2022/06/01 07:01:58;;;;;;;5.55;3.78;;;19.10;89.50;;;;;;5065743;28;20734;-73
2022/06/01 07:04:24;;;;;;;4.00;3.70;;;19.20;89.40;;;;;;5073438;28;20253;-73
2022/06/01 07:06:50;;;;;;;3.53;3.22;;;19.30;89.10;;;;;;5066589;28;20269;-73
2022/06/01 07:09:16;;;;;;;5.28;3.53;;;19.30;89.40;;;;;;5067744;28;20182;-72
2022/06/01 07:11:41;;;;;;;3.67;3.38;;;19.40;89.40;;;;;;5066619;28;20190;-71
2022/06/01 07:14:07;;;;;;;5.40;4.20;;;19.40;89.50;;;;;;5066099;28;20194;-71
2022/06/01 07:16:35;;;;;;;4.72;4.32;;;19.50;89.40;;;;;;5067328;28;20229;-73
2022/06/01 07:19:03;;;;;;;5.22;4.20;;;19.60;89.30;;;;;;5068406;28;20671;-72
2022/06/01 07:21:30;;;;;;;5.00;4.60;;;19.60;89.30;;;;;;5071430;28;20274;-72
2022/06/01 07:23:55;;;;;;;4.57;4.18;;;19.70;89.20;;;;;;5072808;28;20203;-72
2022/06/01 07:26:30;;;;;;;10.02;5.93;;;19.80;89.30;;;;;;5064644;28;20699;-72
2022/06/01 07:28:56;;;;;;;5.72;5.15;;;19.90;88.70;;;;;;5069229;28;20304;-74
2022/06/01 07:31:22;;;;;;;7.47;5.90;;;19.90;88.40;;;;;;5065354;28;20825;-73
2022/06/01 07:33:48;;;;;;;6.13;5.65;;;20.00;88.50;;;;;;5064462;28;20236;-73
2022/06/01 07:36:16;;;;;;;5.78;5.38;;;20.10;88.30;;;;;;5067145;28;20179;-73
2022/06/01 07:44:30;;;;;;;5.68;5.00;;;20.30;87.50;;;;;;5066336;28;20225;-73
2022/06/01 07:46:56;;;;;;;8.07;6.22;;;20.40;88.30;;;;;;5068150;28;21263;-73
2022/06/01 07:49:21;;;;;;;5.20;4.72;;;20.50;87.50;;;;;;5067377;28;20246;-71
2022/06/01 07:51:47;;;;;;;6.80;6.20;;;20.50;88.10;;;;;;5067092;28;20687;-72
2022/06/01 07:54:14;;;;;;;7.00;5.72;;;20.60;87.10;;;;;;5066899;28;20179;-72
2022/06/01 07:56:39;;;;;;;6.43;5.10;;;20.70;86.30;;;;;;5067177;28;20190;-71
2022/06/01 07:59:05;;;;;;;5.00;4.53;;;20.80;86.50;;;;;;5070305;28;20266;-71
2022/06/01 08:01:33;;;;;;;7.13;4.40;;;20.80;87.10;;;;;;5062678;28;20651;-72
2022/06/01 08:04:02;;;;;;;4.40;4.00;;;20.90;87.00;;;;;;5066240;28;20360;-73
2022/06/01 08:06:29;;;;;;;6.57;4.78;;;21.00;87.10;;;;;;5049629;28;20906;-72
2022/06/01 08:08:56;;;;;;;15.57;4.80;;;21.10;86.60;;;;;;5049769;28;20189;-75
2022/06/01 08:14:18;;;;;;;4.40;4.05;;;21.20;86.90;;;;;;5046454;28;20191;-74
2022/06/01 08:16:47;;;;;;;7.28;4.47;;;21.30;86.90;;;;;;5045630;28;20699;-74
2022/06/01 08:19:14;;;;;;;4.75;4.43;;;21.30;86.60;;;;;;5048206;28;20266;-73
2022/06/01 08:21:40;;;;;;;5.68;3.97;;;21.40;86.20;;;;;;5050840;28;20202;-73
2022/06/01 08:24:07;;;;;;;4.88;4.25;;;21.50;86.40;;;;;;5048205;28;20225;-73
2022/06/01 08:26:33;;;;;;;5.10;4.70;;;21.60;85.90;;;;;;5047323;28;20267;-73
2022/06/01 08:28:59;;;;;;;4.22;3.85;;;21.70;83.60;;;;;;5052931;28;20198;-73
2022/06/01 08:31:27;;;;;;;5.50;3.50;;;21.80;83.70;;;;;;5058348;28;20191;-75
2022/06/01 08:33:57;;;;;;;4.78;4.00;;;21.80;84.00;;;;;;5035774;28;20744;-72
2022/06/01 08:36:23;;;;;;;3.88;3.67;;;21.90;83.90;;;;;;5056188;28;20193;-73
2022/06/01 08:38:49;;;;;;;8.18;4.07;;;22.00;84.20;;;;;;5055437;28;20199;-73
2022/06/01 08:41:17;;;;;;;4.65;4.25;;;22.00;84.40;;;;;;5056576;28;20190;-73
2022/06/01 08:43:57;;;;;;;3.78;3.47;;;22.10;83.00;;;;;;5056197;28;20321;-73
2022/06/01 08:46:25;;;;;;;8.02;3.35;;;22.20;82.50;;;;;;5057390;28;20236;-73
2022/06/01 08:48:58;;;;;;;4.85;4.35;;;22.30;83.10;;;;;;5059183;28;20211;-74
2022/06/01 08:51:27;;;;;;;5.57;3.95;;;22.40;82.60;;;;;;5066837;28;20201;-73
2022/06/01 08:53:53;;;;;;;3.13;2.65;;;22.50;81.20;;;;;;5067444;28;20187;-73
2022/06/01 08:56:36;;;;;;;3.75;3.55;;;22.60;82.60;;;;;;5069854;28;20182;-73
2022/06/01 08:59:19;;;;;;;3.20;3.05;;;22.70;81.40;;;;;;5069825;28;20236;-74
2022/06/01 09:02:10;;;;;;;4.10;3.80;;;22.80;81.00;;;;;;5069503;28;20179;-73
2022/06/01 09:04:44;;;;;;;3.80;2.75;;;23.00;80.80;;;;;;5070921;28;20225;-74
2022/06/01 09:07:33;;;;;;;6.00;3.15;;;23.10;81.10;;;;;;5074662;28;20757;-74
2022/06/01 09:10:31;;;;;;;2.70;2.60;;;23.20;82.10;;;;;;5061225;28;20197;-74
2022/06/01 09:13:11;;;;;;;4.20;2.78;;;23.40;80.40;;;;;;5015537;28;20283;-73
2022/06/01 09:15:54;;;;;;;5.65;3.22;;;23.50;78.60;;;;;;5014569;28;20206;-75
2022/06/01 09:18:24;;;;;;;3.38;2.40;;;23.60;79.70;;;;;;4998059;28;20196;-75
2022/06/01 09:23:34;;;;;;;3.38;2.92;;;23.90;80.90;;;;;;5015418;28;20755;-74
2022/06/01 09:26:03;;;;;;;3.00;2.80;;;24.00;76.80;;;;;;5014501;28;20652;-74
2022/06/01 09:28:35;;;;;;;2.92;2.75;;;24.10;75.70;;;;;;5013143;28;20252;-75
2022/06/01 09:31:29;;;;;;;2.92;2.72;;;24.20;77.00;;;;;;4995184;28;20782;-74
2022/06/01 09:34:16;;;;;;;1.95;1.95;;;24.40;75.30;;;;;;4952378;28;20696;-74
2022/06/01 09:37:13;;;;;;;2.10;2.03;;;24.50;77.00;;;;;;4951248;28;20682;-74
2022/06/01 09:40:08;;;;;;;6.32;2.65;;;24.60;75.50;;;;;;4948209;28;20211;-75
2022/06/01 09:42:37;;;;;;;3.33;2.45;;;24.80;76.80;;;;;;4944377;28;20206;-75
2022/06/01 09:45:12;;;;;;;4.05;1.92;;;24.90;75.80;;;;;;4950939;28;20235;-75
2022/06/01 09:47:44;;;;;;;3.97;2.50;;;25.00;74.40;;;;;;4948397;28;20997;-74
2022/06/01 09:50:22;;;;;;;1.77;1.77;;;25.10;72.60;;;;;;4987862;28;20203;-75
2022/06/01 09:52:48;;;;;;;6.05;2.20;;;25.20;73.30;;;;;;5009513;28;20203;-74
2022/06/01 09:55:19;;;;;;;1.77;1.75;;;25.30;74.00;;;;;;5009668;28;20204;-75
2022/06/01 10:06:05;;;;;;;2.28;2.17;;;25.50;71.30;;;;;;5028562;28;20211;-75
2022/06/01 10:06:33;;;;;;;2.17;2.05;;;26.00;69.40;;;;;;5009331;28;20343;-75
2022/06/01 10:09:10;;;;;;;2.25;2.15;;;26.20;69.00;;;;;;5012047;28;20184;-75
2022/06/01 10:11:44;;;;;;;3.75;2.72;;;26.40;68.80;;;;;;5058133;28;20194;-75
2022/06/01 10:14:21;;;;;;;2.50;2.28;;;26.60;66.80;;;;;;5057196;28;20187;-75
2022/06/01 10:16:56;;;;;;;2.05;1.95;;;26.80;66.70;;;;;;5067044;28;20191;-75
2022/06/01 10:19:54;;;;;;;3.13;1.98;;;27.00;65.70;;;;;;5072946;28;20697;-75
2022/06/01 10:22:38;;;;;;;2.50;1.98;;;27.40;64.60;;;;;;5069138;28;20190;-75
2022/06/01 10:25:08;;;;;;;2.55;2.22;;;27.70;62.70;;;;;;5051547;28;20621;-75
2022/06/01 10:28:00;;;;;;;2.00;1.90;;;28.00;63.20;;;;;;5065992;28;20191;-75
2022/06/01 10:30:30;;;;;;;2.22;2.03;;;28.30;63.00;;;;;;5075123;28;20185;-75
2022/06/01 10:33:03;;;;;;;1.45;1.45;;;28.70;64.00;;;;;;5070325;28;20182;-76
2022/06/01 10:35:28;;;;;;;1.40;1.40;;;29.20;60.90;;;;;;5067466;28;20205;-75
2022/06/01 10:38:10;;;;;;;2.20;2.00;;;29.70;61.10;;;;;;5074324;28;20186;-74
2022/06/01 10:40:47;;;;;;;1.60;1.60;;;30.00;59.50;;;;;;5056060;28;20757;-74
2022/06/01 10:43:38;;;;;;;1.98;1.90;;;30.50;58.90;;;;;;5066552;28;20191;-76
2022/06/01 10:46:36;;;;;;;2.95;1.80;;;30.90;57.60;;;;;;5089177;28;20273;-75
2022/06/01 10:49:22;;;;;;;2.25;1.50;;;31.60;55.70;;;;;;5020973;28;20284;-75
2022/06/01 10:52:26;;;;;;;1.85;1.30;;;32.30;54.80;;;;;;5022961;28;20195;-75
2022/06/01 10:55:13;;;;;;;1.30;1.30;;;33.10;53.40;;;;;;5024411;28;20191;-75
2022/06/01 10:57:46;;;;;;;1.60;1.50;;;33.70;53.90;;;;;;5027134;28;20657;-75
2022/06/01 11:00:19;;;;;;;1.67;1.45;;;34.60;54.00;;;;;;5026174;28;20202;-73
2022/06/01 11:03:21;;;;;;;1.30;1.30;;;34.90;54.20;;;;;;5027515;28;20200;-75
2022/06/01 11:06:08;;;;;;;1.10;1.10;;;35.10;52.00;;;;;;5025219;28;20811;-76
2022/06/01 11:09:05;;;;;;;1.20;1.20;;;35.50;52.40;;;;;;5026965;28;20684;-76
2022/06/01 11:11:46;;;;;;;1.30;1.27;;;36.20;47.70;;;;;;5025498;28;20219;-75
2022/06/01 11:15:10;;;;;;;1.40;1.27;;;36.20;48.90;;;;;;5038242;28;20677;-75
2022/06/01 11:17:50;;;;;;;1.13;1.13;;;36.20;46.40;;;;;;4979485;28;20252;-75
2022/06/01 11:20:34;;;;;;;1.70;1.20;;;36.10;48.30;;;;;;4982385;28;20225;-74
2022/06/01 11:23:23;;;;;;;1.30;1.17;;;36.30;48.90;;;;;;4986615;28;20292;-75
2022/06/01 11:26:09;;;;;;;4.80;1.35;;;36.60;48.00;;;;;;4931220;28;20216;-75
2022/06/01 11:28:35;;;;;;;2.17;1.42;;;37.00;47.20;;;;;;4941909;28;20909;-76
2022/06/01 11:31:03;;;;;;;2.75;0.93;;;37.40;48.10;;;;;;4945409;28;20232;-75
2022/06/01 11:33:55;;;;;;;3.67;1.30;;;37.80;45.80;;;;;;4951933;28;20259;-74
2022/06/01 11:36:57;;;;;;;1.50;1.30;;;38.10;46.20;;;;;;4948825;28;20712;-74
2022/06/01 11:39:54;;;;;;;1.15;1.02;;;38.00;43.20;;;;;;4946755;28;20912;-74
2022/06/01 11:42:37;;;;;;;1.17;1.17;;;38.00;45.60;;;;;;4946276;28;20359;-74
2022/06/01 11:45:11;;;;;;;5.15;1.30;;;38.30;44.70;;;;;;4945147;28;20226;-74
2022/06/01 11:47:49;;;;;;;2.67;1.20;;;38.60;46.30;;;;;;4945247;28;20196;-74
2022/06/01 11:50:24;;;;;;;3.13;1.13;;;39.00;45.00;;;;;;4946813;28;20611;-74
2022/06/01 11:52:56;;;;;;;1.70;1.60;;;39.00;43.00;;;;;;4964469;28;20192;-74
2022/06/01 11:55:33;;;;;;;1.52;1.42;;;39.10;43.90;;;;;;4982636;28;20596;-75
2022/06/01 11:58:21;;;;;;;3.20;1.10;;;39.30;43.50;;;;;;4982026;28;20192;-75
2022/06/01 12:00:51;;;;;;;1.00;1.00;;;39.60;42.80;;;;;;5006940;28;20185;-74
2022/06/01 12:03:17;;;;;;;1.13;1.00;;;40.00;43.80;;;;;;5041577;28;20190;-75
2022/06/01 12:06:04;;;;;;;3.20;0.85;;;40.00;45.80;;;;;;5072174;28;20197;-74
2022/06/01 12:08:56;;;;;;;1.02;1.02;;;40.10;42.70;;;;;;5071949;28;20543;-75
2022/06/01 12:11:40;;;;;;;3.70;0.95;;;40.40;43.90;;;;;;5072285;28;20179;-74
2022/06/01 12:14:30;;;;;;;1.30;0.93;;;40.70;44.50;;;;;;5091611;28;20243;-75
2022/06/01 12:17:17;;;;;;;0.80;0.77;;;40.70;41.40;;;;;;5069496;28;20183;-76
2022/06/01 12:19:45;;;;;;;1.25;1.00;;;40.60;42.20;;;;;;5068109;28;20179;-74
2022/06/01 12:28:31;;;;;;;1.02;1.00;;;40.60;41.60;;;;;;5021377;28;20249;-76
2022/06/01 12:31:18;;;;;;;3.88;1.02;;;40.80;40.90;;;;;;5020130;28;20198;-76
2022/06/01 12:34:17;;;;;;;1.30;0.90;;;41.20;41.30;;;;;;5020142;28;20184;-76
2022/06/01 12:36:54;;;;;;;1.45;0.80;;;41.60;40.80;;;;;;5018302;28;20219;-75
2022/06/01 12:39:31;;;;;;;1.23;0.80;;;42.00;39.70;;;;;;5004659;28;20183;-75
2022/06/01 12:42:04;;;;;;;6.68;0.82;;;42.30;39.10;;;;;;5017779;28;20631;-75
2022/06/01 12:44:34;;;;;;;1.40;1.17;;;42.50;40.20;;;;;;5017579;28;20272;-75
2022/06/01 12:47:00;;;;;;;0.77;0.77;;;42.70;40.90;;;;;;5017933;28;20227;-75
2022/06/01 12:49:37;;;;;;;0.80;0.80;;;42.90;40.10;;;;;;5017240;28;20413;-75
2022/06/01 12:52:04;;;;;;;3.90;1.38;;;43.20;38.10;;;;;;5016901;28;20821;-75
2022/06/01 12:54:35;;;;;;;0.90;0.90;;;43.20;38.90;;;;;;5017830;28;20275;-75
2022/06/01 12:57:03;;;;;;;2.17;1.00;;;43.20;38.40;;;;;;5020835;28;20192;-75
2022/06/01 12:59:32;;;;;;;3.20;1.23;;;43.30;38.60;;;;;;5003527;28;20620;-75
2022/06/01 13:02:01;;;;;;;0.93;0.93;;;43.50;40.20;;;;;;5040399;28;20217;-75
2022/06/01 13:04:27;;;;;;;0.82;0.82;;;43.50;37.70;;;;;;5066367;28;20219;-75
2022/06/01 13:06:54;;;;;;;2.05;1.00;;;43.70;38.40;;;;;;5064334;28;20638;-76
2022/06/01 13:09:29;;;;;;;2.80;0.80;;;43.80;39.30;;;;;;5058986;28;20654;-75
2022/06/01 13:12:06;;;;;;;1.58;0.95;;;44.00;38.30;;;;;;5068330;28;20190;-76
2022/06/01 13:14:35;;;;;;;1.13;1.13;;;44.00;37.10;;;;;;5067864;28;20627;-76
2022/06/01 13:17:14;;;;;;;1.80;0.90;;;44.00;37.60;;;;;;5068191;28;20183;-76
2022/06/01 13:19:39;;;;;;;0.80;0.80;;;44.00;37.30;;;;;;5071709;28;20221;-75
2022/06/01 13:22:24;;;;;;;1.05;0.90;;;44.00;38.00;;;;;;5067390;28;20217;-74
2022/06/01 13:25:04;;;;;;;2.72;0.65;;;44.10;37.10;;;;;;5064326;28;20242;-75
2022/06/01 13:27:30;;;;;;;2.00;0.60;;;44.20;36.70;;;;;;5056451;28;20194;-75
2022/06/01 13:30:00;;;;;;;1.95;0.80;;;44.40;36.70;;;;;;5067308;28;20640;-75
2022/06/01 13:32:33;;;;;;;2.20;0.70;;;44.60;36.50;;;;;;5068162;28;20186;-76
2022/06/01 13:35:28;;;;;;;2.58;0.57;;;44.80;35.30;;;;;;5064816;28;20748;-75
2022/06/01 13:37:56;;;;;;;1.90;0.73;;;45.00;36.40;;;;;;5076352;28;20190;-75
2022/06/01 13:40:29;;;;;;;0.90;0.90;;;44.50;37.10;;;;;;5078429;28;20785;-75
2022/06/01 13:43:16;;;;;;;1.52;0.80;;;44.20;37.50;;;;;;5072048;28;20293;-75